createdAt,value
2022-08-10T00:00:57.929Z,94.10
2022-08-10T00:06:01.238Z,94.38
2022-08-10T00:11:04.959Z,94.68
2022-08-10T00:16:19.130Z,94.68
2022-08-10T00:21:22.435Z,94.92
2022-08-10T00:27:51.800Z,95.48
2022-08-10T00:31:58.374Z,95.80
2022-08-10T00:37:02.678Z,95.77
2022-08-10T00:42:10.596Z,95.60
2022-08-10T00:47:36.070Z,95.86
2022-08-10T00:52:39.438Z,96.00
2022-08-10T00:57:43.266Z,96.13
2022-08-10T01:02:46.694Z,96.15
2022-08-10T01:08:31.968Z,96.15
2022-08-10T01:14:09.629Z,95.71
2022-08-10T01:19:54.571Z,96.25
2022-08-10T01:25:12.072Z,96.77
2022-08-10T01:30:15.880Z,97.20
2022-08-10T01:35:33.598Z,96.92
2022-08-10T01:40:42.388Z,96.52
2022-08-10T01:45:49.734Z,96.45
2022-08-10T01:51:01.641Z,96.38
2022-08-10T01:56:07.854Z,96.69
2022-08-10T02:01:16.943Z,96.75
2022-08-10T02:06:23.064Z,96.44
2022-08-10T02:11:29.322Z,96.29
2022-08-10T02:16:54.019Z,96.82
2022-08-10T02:22:37.599Z,96.81
2022-08-10T02:27:25.456Z,97.20
2022-08-10T02:32:35.984Z,97.12
2022-08-10T02:37:46.801Z,97.27
2022-08-10T02:45:19.058Z,97.52
2022-08-10T02:48:35.510Z,98.03
2022-08-10T02:53:55.473Z,98.21
2022-08-10T02:59:38.468Z,97.90
2022-08-10T03:04:55.034Z,97.91
2022-08-10T03:10:04.536Z,98.18
2022-08-10T03:15:19.638Z,98.51
2022-08-10T03:20:37.413Z,98.95
2022-08-10T03:25:53.165Z,99.54
2022-08-10T03:30:59.697Z,99.66
2022-08-10T03:36:42.227Z,99.58
2022-08-10T03:41:54.311Z,99.63
2022-08-10T03:47:16.288Z,99.72
2022-08-10T03:52:20.589Z,99.80
2022-08-10T03:57:24.813Z,99.83
2022-08-10T04:02:46.824Z,99.68
2022-08-10T04:07:51.609Z,99.87
2022-08-10T04:12:55.536Z,98.68
2022-08-10T04:18:05.758Z,98.84
2022-08-10T04:23:24.428Z,94.77
2022-08-10T04:28:28.402Z,90.60
2022-08-10T04:33:33.774Z,86.69
2022-08-10T04:38:37.482Z,83.29
2022-08-10T04:43:40.896Z,78.27
2022-08-10T04:48:59.712Z,74.06
2022-08-10T04:54:07.209Z,69.05
2022-08-10T04:59:12.743Z,65.60
2022-08-10T05:04:34.701Z,60.76
2022-08-10T05:10:01.597Z,56.76
2022-08-10T05:15:15.249Z,53.19
2022-08-10T05:20:18.824Z,51.78
2022-08-10T05:25:22.644Z,49.55
2022-08-10T05:30:26.806Z,47.96
2022-08-10T05:35:55.061Z,46.22
2022-08-10T05:40:54.797Z,44.27
2022-08-10T05:46:18.652Z,42.85
2022-08-10T05:51:22.493Z,41.85
2022-08-10T05:56:26.684Z,41.66
2022-08-10T06:02:32.001Z,40.01
2022-08-10T06:07:21.659Z,38.82
2022-08-10T06:12:31.292Z,37.39
2022-08-10T06:17:36.102Z,28.71
2022-08-10T06:22:39.417Z,34.49
2022-08-10T06:27:44.466Z,34.77
2022-08-10T06:32:53.135Z,33.70
2022-08-10T06:38:01.434Z,12.91
2022-08-10T06:43:10.068Z,-1.00
2022-08-10T06:48:32.929Z,24.94
2022-08-10T06:53:53.744Z,30.23
2022-08-10T06:59:21.483Z,28.94
2022-08-10T07:04:38.552Z,29.33
2022-08-10T07:09:42.428Z,27.96
2022-08-10T07:14:47.137Z,28.32
2022-08-10T07:19:53.869Z,29.20
2022-08-10T07:24:59.667Z,30.31
2022-08-10T07:30:05.843Z,30.45
2022-08-10T07:35:13.927Z,28.08
2022-08-10T07:40:20.158Z,25.01
2022-08-10T07:45:29.201Z,24.09
2022-08-10T07:50:35.936Z,22.53
2022-08-10T07:56:05.317Z,21.39
2022-08-10T08:01:07.417Z,21.32
2022-08-10T08:06:12.768Z,20.77
2022-08-10T08:11:26.210Z,19.95
2022-08-10T08:16:31.585Z,19.61
2022-08-10T08:24:07.657Z,19.07
2022-08-10T08:27:11.529Z,18.09
2022-08-10T08:32:22.486Z,18.75
2022-08-10T08:38:30.417Z,18.96
2022-08-10T08:43:31.337Z,19.36
2022-08-10T08:48:53.508Z,19.57
2022-08-10T08:54:19.755Z,18.34
2022-08-10T08:59:35.149Z,17.60
2022-08-10T09:04:59.658Z,18.11
2022-08-10T09:10:38.501Z,17.50
2022-08-10T09:16:00.042Z,17.55
2022-08-10T09:21:17.276Z,18.23
2022-08-10T09:26:43.115Z,19.13
2022-08-10T09:33:06.030Z,17.08
2022-08-10T09:38:01.034Z,17.98
2022-08-10T09:43:25.766Z,17.93
2022-08-10T09:48:46.253Z,18.42
2022-08-10T09:54:04.821Z,18.88
2022-08-10T10:00:00.585Z,22.83
2022-08-10T10:05:11.434Z,26.58
2022-08-10T10:10:24.920Z,28.66
2022-08-10T10:15:44.677Z,31.33
2022-08-10T10:21:09.695Z,33.17
2022-08-10T10:26:24.988Z,34.68
2022-08-10T10:31:56.256Z,35.91
2022-08-10T10:37:01.716Z,36.80
2022-08-10T10:42:59.295Z,37.31
2022-08-10T10:48:29.249Z,37.72
2022-08-10T10:53:48.106Z,37.52
2022-08-10T10:59:54.043Z,37.37
2022-08-10T11:05:14.537Z,36.56
2022-08-10T11:10:32.736Z,36.20
2022-08-10T11:15:55.709Z,35.64
2022-08-10T11:21:16.654Z,36.37
2022-08-10T11:26:29.454Z,36.44
2022-08-10T11:31:48.059Z,36.21
2022-08-10T11:37:15.842Z,34.39
2022-08-10T11:42:45.063Z,34.97
2022-08-10T11:47:59.748Z,36.65
2022-08-10T11:53:39.162Z,37.44
2022-08-10T11:59:16.675Z,38.26
2022-08-10T12:04:21.916Z,38.28
2022-08-10T12:10:08.932Z,37.24
2022-08-10T12:14:59.815Z,38.00
2022-08-10T12:20:16.727Z,38.42
2022-08-10T12:25:57.524Z,36.83
2022-08-10T12:31:06.273Z,36.38
2022-08-10T12:36:18.173Z,37.01
2022-08-10T12:41:44.226Z,37.35
2022-08-10T12:46:59.219Z,38.20
2022-08-10T12:52:24.950Z,38.99
2022-08-10T12:57:29.510Z,39.61
2022-08-10T13:02:36.935Z,40.15
2022-08-10T13:08:25.880Z,39.04
2022-08-10T13:13:09.131Z,37.67
2022-08-10T13:18:17.883Z,36.56
2022-08-10T13:23:28.693Z,35.85
2022-08-10T13:28:47.826Z,37.37
2022-08-10T13:34:40.881Z,38.73
2022-08-10T13:39:23.020Z,39.27
2022-08-10T13:44:54.077Z,39.12
2022-08-10T13:50:10.635Z,40.32
2022-08-10T13:55:17.797Z,39.59
2022-08-10T14:00:34.929Z,38.41
2022-08-10T14:05:44.821Z,37.72
2022-08-10T14:11:08.485Z,38.18
2022-08-10T14:16:16.103Z,40.59
2022-08-10T14:21:20.129Z,41.72
2022-08-10T14:26:31.828Z,42.60
2022-08-10T14:31:39.446Z,42.03
2022-08-10T14:37:07.128Z,41.58
2022-08-10T14:42:27.146Z,41.33
2022-08-10T14:47:53.622Z,41.41
2022-08-10T14:53:15.263Z,42.54
2022-08-10T14:58:34.716Z,43.77
2022-08-10T15:04:01.125Z,44.67
2022-08-10T15:09:19.209Z,45.51
2022-08-10T15:14:43.746Z,45.78
2022-08-10T15:20:02.819Z,46.77
2022-08-10T15:25:25.281Z,47.50
2022-08-10T15:30:38.923Z,48.12
2022-08-10T15:36:07.934Z,48.27
2022-08-10T15:41:16.108Z,48.80
2022-08-10T15:46:29.639Z,48.73
2022-08-10T15:51:54.246Z,48.74
2022-08-10T15:57:08.905Z,48.20
2022-08-10T16:02:17.770Z,49.09
2022-08-10T16:07:42.877Z,51.01
2022-08-10T16:12:59.829Z,52.41
2022-08-10T16:18:08.937Z,53.91
2022-08-10T16:23:18.085Z,53.97
2022-08-10T16:28:23.731Z,54.37
2022-08-10T16:33:54.287Z,55.00
2022-08-10T16:38:55.786Z,55.53
2022-08-10T16:44:01.341Z,56.42
2022-08-10T16:49:05.869Z,57.36
2022-08-10T16:54:10.779Z,58.00
2022-08-10T16:59:17.876Z,58.75
2022-08-10T17:04:26.144Z,59.45
2022-08-10T17:09:32.339Z,60.29
2022-08-10T17:14:39.067Z,60.36
2022-08-10T17:19:45.231Z,60.83
2022-08-10T17:24:58.024Z,61.64
2022-08-10T17:30:09.768Z,61.63
2022-08-10T17:35:23.524Z,62.25
2022-08-10T17:40:29.052Z,62.70
2022-08-10T17:45:47.576Z,63.18
2022-08-10T17:50:54.453Z,64.14
2022-08-10T17:56:00.490Z,64.39
2022-08-10T18:01:38.326Z,65.05
2022-08-10T18:06:32.346Z,65.48
2022-08-10T18:11:42.984Z,65.89
2022-08-10T18:16:47.928Z,66.53
2022-08-10T18:21:51.856Z,67.44
2022-08-10T18:26:58.350Z,67.65
2022-08-10T18:32:03.909Z,68.32
2022-08-10T18:37:10.308Z,69.71
2022-08-10T18:42:16.772Z,70.11
2022-08-10T18:47:41.998Z,70.81
2022-08-10T18:53:12.812Z,71.37
2022-08-10T18:58:40.652Z,72.06
2022-08-10T19:04:09.450Z,72.49
2022-08-10T19:09:47.226Z,72.68
2022-08-10T19:15:01.128Z,73.34
2022-08-10T19:20:29.713Z,73.58
2022-08-10T19:26:36.473Z,73.84
2022-08-10T19:31:24.484Z,74.34
2022-08-10T19:37:17.638Z,74.64
2022-08-10T19:42:32.337Z,75.24
2022-08-10T19:47:52.266Z,75.49
2022-08-10T19:53:05.196Z,76.08
2022-08-10T19:58:21.301Z,76.54
2022-08-10T20:04:10.078Z,76.85
2022-08-10T20:09:42.663Z,77.74
2022-08-10T20:15:27.645Z,78.36
2022-08-10T20:20:38.621Z,79.02
2022-08-10T20:26:01.646Z,79.32
2022-08-10T20:31:23.215Z,79.79
2022-08-10T20:36:31.475Z,80.30
2022-08-10T20:41:45.969Z,80.96
2022-08-10T20:47:02.174Z,81.32
2022-08-10T20:52:07.126Z,81.87
2022-08-10T20:57:56.729Z,82.55
2022-08-10T21:03:31.393Z,83.47
2022-08-10T21:08:44.717Z,84.09
2022-08-10T21:14:15.570Z,85.07
2022-08-10T21:19:32.935Z,85.92
2022-08-10T21:25:02.524Z,86.66
2022-08-10T21:30:16.179Z,86.67
2022-08-10T21:35:56.658Z,86.26
2022-08-10T21:41:57.464Z,86.30
2022-08-10T21:48:06.534Z,86.30
2022-08-10T21:53:44.741Z,86.51
2022-08-10T21:59:22.521Z,87.30
2022-08-10T22:04:45.598Z,88.10
2022-08-10T22:10:09.482Z,88.17
2022-08-10T22:16:03.603Z,88.40
2022-08-10T22:21:45.511Z,88.59
2022-08-10T22:27:46.672Z,88.90
2022-08-10T22:33:27.456Z,89.54
2022-08-10T22:39:14.935Z,90.43
2022-08-10T22:45:06.954Z,91.12
2022-08-10T22:50:13.344Z,91.24
2022-08-10T22:55:41.016Z,91.04
2022-08-10T23:01:01.384Z,91.13
2022-08-10T23:06:10.882Z,91.39
2022-08-10T23:11:29.247Z,91.74
2022-08-10T23:16:59.593Z,91.64
2022-08-10T23:22:14.062Z,91.80
2022-08-10T23:27:38.628Z,91.75
2022-08-10T23:32:49.062Z,91.96
2022-08-10T23:37:57.117Z,92.36
2022-08-10T23:43:02.943Z,92.70
2022-08-10T23:48:07.412Z,92.85
2022-08-10T23:53:13.688Z,92.75
2022-08-10T23:58:33.170Z,92.84
